Terminal Aerodrome Forecast
Issued by NWS Shreveport, LA

Current Version | Previous Version | Text Only | Print | Product List | Glossary On
Versions: 1 2 3 4 5 6 7 8 9 10 11 12 13 14 15
000
FTUS44 KSHV 200523
TAFELD
TAF
KELD 200523Z 2006/2106 04003KT P6SM SKC
     FM201500 07010KT P6SM SCT250
     FM210000 08003KT P6SM SKC=

USA.gov is the U.S. government's official web portal to all federal, state and local government web resources and services.